ADDS METAR Data INFO
IDs: Format: Raw Decoded Include TAF

Data at: 2112 UTC 20 Nov 2017

METAR for:KAUS (Austin/Bergstrom Int, TX, US)
Text:KAUS 202053Z 20011KT 10SM FEW200 20/02 A3003 RMK AO2 SLP168 T02000022 56045
Temperature: 20.0°C ( 68°F)
Dewpoint: 2.2°C ( 36°F) [RH = 31%]
Pressure (altimeter):30.03 inches Hg (1017.0 mb) [Sea level pressure: 1016.8 mb]
Winds:from the SSW (200 degrees) at 13 MPH (11 knots; 5.7 m/s)
Visibility:10 or more sm (16+ km)
Ceiling:at least 12,000 feet AGL
Clouds: few clouds at 20000 feet AGL